Time;durP1;ratioP1;P1;durP2;ratioP2;P2;SDS_P1;SDS_P2;PMS_P1;PMS_P2;Temp;Humidity;BMP_temperature;BMP_pressure;BME280_temperature;BME280_humidity;BME280_pressure;Samples;Min_cycle;Max_cycle;Signal;HPM_P1;HPM_P2
2021/04/10 05:05:11;;;;;;;56.80;45.45;;;;;;;;;;6069789;22;20179;-89
2021/04/10 05:51:42;;;;;;;58.20;45.83;;;7.90;82.00;;;;;;6020906;22;20221;-87
2021/04/10 06:14:38;;;;;;;55.58;44.90;;;8.40;93.70;;;;;;5914165;22;20336;-87
2021/04/10 06:27:33;;;;;;;40.55;36.25;;;8.60;80.10;;;;;;5660272;22;21543;31
2021/04/10 06:32:41;;;;;;;41.63;36.10;;;8.70;76.10;;;;;;5708931;22;20228;-89
2021/04/10 06:46:23;;;;;;;35.42;31.63;;;8.90;72.90;;;;;;5640404;22;20499;-88
2021/04/10 06:48:51;;;;;;;35.10;31.25;;;8.80;71.60;;;;;;5038225;28;20216;-89
2021/04/10 06:54:03;;;;;;;37.10;32.50;;;8.80;88.40;;;;;;5135269;22;20227;-89
2021/04/10 06:56:32;;;;;;;34.22;30.52;;;8.90;71.60;;;;;;5038408;28;20176;-89
2021/04/10 06:59:08;;;;;;;42.03;31.30;;;9.00;87.70;;;;;;5038749;28;20168;-88
2021/04/10 07:07:37;;;;;;;35.53;31.38;;;9.00;70.60;;;;;;5906450;22;20335;-87
2021/04/10 07:12:38;;;;;;;37.83;33.22;;;;;;;;;;5207820;22;20239;-90
2021/04/10 07:15:13;;;;;;;37.33;32.38;;;9.10;87.30;;;;;;5040101;28;20179;-90
2021/04/10 07:17:38;;;;;;;36.60;32.13;;;9.00;71.90;;;;;;5037250;28;20200;-89
2021/04/10 07:20:36;;;;;;;35.07;30.40;;;9.30;73.10;;;;;;5036985;28;20408;-88
2021/04/10 07:23:13;;;;;;;39.33;32.35;;;10.30;72.70;;;;;;5034744;28;20177;-89
2021/04/10 07:28:34;;;;;;;40.50;34.20;;;9.30;86.00;;;;;;5248162;22;20206;-87
2021/04/10 07:36:25;;;;;;;35.80;31.17;;;;;;;;;;5109814;22;20589;-87
2021/04/10 07:39:01;;;;;;;41.67;33.40;;;9.10;81.10;;;;;;5339922;22;20879;-88
2021/04/10 07:41:28;;;;;;;38.73;33.60;;;;;;;;;;5014086;28;20856;-86
2021/04/10 07:43:53;;;;;;;43.35;35.50;;;9.20;70.90;;;;;;5015631;28;20462;-87
2021/04/10 07:46:24;;;;;;;47.43;33.63;;;9.30;71.40;;;;;;5024066;28;20169;-90
2021/04/10 07:51:32;;;;;;;45.80;36.33;;;9.30;86.00;;;;;;5064820;22;20239;-88
2021/04/10 07:54:01;;;;;;;44.60;35.90;;;9.20;70.20;;;;;;5016326;28;20170;-89
2021/04/10 07:57:17;;;;;;;45.80;36.63;;;9.40;81.10;;;;;;5145948;22;20239;-87
2021/04/10 07:59:45;;;;;;;48.38;34.17;;;10.40;70.40;;;;;;5035152;28;20262;-89
2021/04/10 08:02:17;;;;;;;55.50;41.07;;;9.70;77.00;;;;;;5033476;28;20180;-90
2021/04/10 08:05:21;;;;;;;51.03;39.50;;;9.50;72.20;;;;;;5032773;28;20431;-90
2021/04/10 08:07:51;;;;;;;51.30;39.28;;;9.50;68.90;;;;;;5034231;28;20255;-88
2021/04/10 08:10:30;;;;;;;48.58;37.10;;;9.60;84.90;;;;;;5290001;22;20197;-90
2021/04/10 08:13:08;;;;;;;49.00;37.70;;;8.90;69.10;;;;;;5029000;28;20185;-90
2021/04/10 08:15:34;;;;;;;46.83;36.42;;;12.50;72.70;;;;;;5027947;28;20617;-89
2021/04/10 08:17:59;;;;;;;49.63;38.00;;;12.70;75.00;;;;;;5024920;28;20184;-91
2021/04/10 08:20:27;;;;;;;50.97;38.43;;;10.60;66.40;;;;;;5026017;28;20420;-89
2021/04/10 08:23:20;;;;;;;62.23;42.43;;;13.30;74.00;;;;;;5031080;28;20177;-90
2021/04/10 08:25:46;;;;;;;55.27;42.07;;;10.70;66.80;;;;;;5023153;28;20474;-88
2021/04/10 08:28:23;;;;;;;58.80;45.20;;;10.10;67.00;;;;;;5028022;28;20455;-90
2021/04/10 08:30:54;;;;;;;57.95;41.88;;;11.80;64.80;;;;;;5015478;28;20196;-91
2021/04/10 08:33:22;;;;;;;56.90;40.90;;;10.70;66.00;;;;;;5027107;28;20176;-89
2021/04/10 08:35:52;;;;;;;64.20;46.63;;;10.90;64.80;;;;;;5030452;28;20415;-88
2021/04/10 08:38:31;;;;;;;71.50;45.17;;;10.90;76.70;;;;;;5026804;28;20415;-89
2021/04/10 08:41:03;;;;;;;60.30;43.72;;;10.60;75.60;;;;;;5278530;22;20487;-89
2021/04/10 08:43:40;;;;;;;60.50;43.23;;;10.50;77.20;;;;;;5108801;22;20312;-90
2021/04/10 08:46:10;;;;;;;61.30;45.57;;;12.60;67.30;;;;;;5031136;28;20498;-90
2021/04/10 08:48:37;;;;;;;60.88;43.47;;;12.70;67.30;;;;;;5031594;28;20456;-91
2021/04/10 08:51:06;;;;;;;64.88;43.90;;;11.40;65.10;;;;;;5027629;28;20207;-89
2021/04/10 08:53:41;;;;;;;60.17;44.03;;;10.50;64.70;;;;;;5025064;28;20164;-92
2021/04/10 08:56:11;;;;;;;58.33;44.83;;;10.50;65.80;;;;;;5031492;28;20187;-90
2021/04/10 08:58:40;;;;;;;66.43;46.80;;;9.10;64.80;;;;;;5033187;28;20425;-92
2021/04/10 09:01:31;;;;;;;66.00;48.10;;;10.20;65.10;;;;;;5032136;28;20420;-91
2021/04/10 09:03:57;;;;;;;62.10;44.70;;;12.10;68.00;;;;;;5033197;28;20396;-92
2021/04/10 09:06:29;;;;;;;62.50;43.80;;;9.10;64.90;;;;;;5032254;28;20415;-88
2021/04/10 09:09:32;;;;;;;73.43;44.90;;;8.50;65.00;;;;;;5032446;28;20212;-90
2021/04/10 09:12:20;;;;;;;69.13;46.20;;;10.70;64.10;;;;;;5020443;28;20236;-91
2021/04/10 09:14:48;;;;;;;58.07;44.93;;;10.80;64.50;;;;;;5025108;28;20432;-88
2021/04/10 09:17:15;;;;;;;55.17;42.60;;;;;;;;;;5028495;28;20427;-88
2021/04/10 09:19:41;;;;;;;60.63;42.13;;;11.00;61.60;;;;;;5013647;28;20400;-89
2021/04/10 09:22:16;;;;;;;62.80;45.20;;;11.20;64.10;;;;;;5021885;28;20810;-90
2021/04/10 09:24:47;;;;;;;60.50;42.15;;;11.00;60.00;;;;;;5013942;28;20428;-91
2021/04/10 09:27:24;;;;;;;53.83;39.93;;;10.10;59.80;;;;;;5008084;28;20169;-89
2021/04/10 09:29:50;;;;;;;60.07;43.17;;;;;;;;;;5017559;28;20478;-88
2021/04/10 09:32:44;;;;;;;60.20;43.13;;;11.00;61.40;;;;;;5014996;28;20411;-91
2021/04/10 09:35:15;;;;;;;61.50;42.97;;;11.30;60.80;;;;;;5013622;28;20930;-89
2021/04/10 09:37:41;;;;;;;56.57;41.93;;;10.80;60.50;;;;;;5012465;28;20426;-88
2021/04/10 09:40:17;;;;;;;56.17;42.03;;;11.10;60.90;;;;;;5013100;28;20431;-86
2021/04/10 09:43:02;;;;;;;56.13;41.63;;;11.20;60.70;;;;;;5016466;28;20198;-91
2021/04/10 09:45:30;;;;;;;59.87;42.97;;;11.20;60.70;;;;;;5017014;28;20231;-91
2021/04/10 09:47:57;;;;;;;66.67;45.27;;;12.90;62.80;;;;;;5021137;28;20419;-90
2021/04/10 09:50:26;;;;;;;58.00;44.60;;;10.60;63.10;;;;;;5018677;28;20510;-90
2021/04/10 09:53:02;;;;;;;56.15;43.78;;;9.70;62.50;;;;;;5017459;28;20786;-88
2021/04/10 09:55:29;;;;;;;55.88;43.15;;;10.80;62.90;;;;;;5014253;28;20169;-87
2021/04/10 09:58:13;;;;;;;68.97;47.10;;;10.80;63.20;;;;;;5015217;28;20173;-86
2021/04/10 10:00:44;;;;;;;113.80;66.13;;;10.90;64.70;;;;;;5024288;28;20491;-89
2021/04/10 10:03:12;;;;;;;61.70;44.20;;;10.80;65.10;;;;;;5020420;28;20758;-92
2021/04/10 10:05:40;;;;;;;67.43;49.73;;;10.70;64.60;;;;;;5016850;28;20176;-86
2021/04/10 10:08:12;;;;;;;55.13;42.63;;;9.90;67.40;;;;;;4670620;28;9999863;-87
2021/04/10 10:10:42;;;;;;;60.80;45.25;;;10.60;65.80;;;;;;5018329;28;20180;-90
2021/04/10 10:13:10;;;;;;;147.27;73.30;;;12.00;69.90;;;;;;5024778;28;20161;-91
2021/04/10 10:15:37;;;;;;;66.82;47.10;;;9.80;67.30;;;;;;5023536;28;20416;-91
2021/04/10 10:18:19;;;;;;;73.10;47.17;;;10.90;69.80;;;;;;5024339;28;20195;-90
2021/04/10 10:20:59;;;;;;;61.70;44.50;;;9.60;67.90;;;;;;5022015;28;20172;-90
2021/04/10 10:23:29;;;;;;;57.40;42.38;;;10.80;66.70;;;;;;5021196;28;20502;-88
2021/04/10 10:26:01;;;;;;;62.55;44.60;;;9.50;67.00;;;;;;5018295;28;20200;-89
2021/04/10 10:28:27;;;;;;;59.00;43.80;;;10.50;67.20;;;;;;5016831;28;20243;-90
2021/04/10 10:30:52;;;;;;;65.27;46.57;;;10.70;68.80;;;;;;5015994;28;20424;-89
2021/04/10 10:33:20;;;;;;;65.90;44.57;;;10.50;69.70;;;;;;5020907;28;20173;-86
2021/04/10 10:35:51;;;;;;;65.28;44.17;;;10.60;70.40;;;;;;5022527;28;20306;-89
2021/04/10 10:38:18;;;;;;;68.00;44.67;;;10.60;69.50;;;;;;5015876;28;20176;-90
2021/04/10 10:40:52;;;;;;;63.00;44.80;;;10.70;70.50;;;;;;5026292;28;20434;-89
2021/04/10 10:43:19;;;;;;;57.27;42.97;;;10.70;68.60;;;;;;5027878;28;20176;-89
2021/04/10 10:46:00;;;;;;;54.17;39.80;;;12.30;70.50;;;;;;5025999;28;20412;-90
2021/04/10 10:48:31;;;;;;;64.93;41.93;;;11.40;70.10;;;;;;5029873;28;20497;-90
2021/04/10 10:51:00;;;;;;;61.47;42.13;;;10.60;69.10;;;;;;5031525;28;20402;-91
2021/04/10 10:53:30;;;;;;;60.53;42.63;;;10.50;69.90;;;;;;5026854;28;20442;-89
2021/04/10 10:56:00;;;;;;;61.13;44.87;;;10.40;68.50;;;;;;5025021;28;20418;-88
2021/04/10 10:58:34;;;;;;;75.30;51.37;;;11.00;71.00;;;;;;5024854;28;20454;-86
2021/04/10 11:01:00;;;;;;;56.45;40.50;;;10.40;72.30;;;;;;5031999;28;20404;-90
2021/04/10 11:03:26;;;;;;;56.90;40.40;;;10.40;70.00;;;;;;5010856;28;20192;-90
2021/04/10 11:05:52;;;;;;;73.37;47.33;;;10.40;70.70;;;;;;5027669;28;20441;-88
2021/04/10 11:08:20;;;;;;;79.50;49.13;;;10.40;71.40;;;;;;5024731;28;20519;-89
2021/04/10 11:10:48;;;;;;;72.17;43.73;;;10.30;71.40;;;;;;5023947;28;20426;-90
2021/04/10 11:13:14;;;;;;;62.33;41.15;;;10.10;70.70;;;;;;5031415;28;20462;-89
2021/04/10 11:15:43;;;;;;;48.07;36.80;;;10.30;70.20;;;;;;5023537;28;20231;-87
2021/04/10 11:18:32;;;;;;;57.38;40.83;;;10.40;71.60;;;;;;5016378;28;20423;-88
2021/04/10 11:21:22;;;;;;;46.60;34.65;;;10.50;70.70;;;;;;5003094;28;20181;-90
2021/04/10 11:24:13;;;;;;;49.27;35.57;;;10.50;71.40;;;;;;5013369;28;20397;-87
2021/04/10 11:26:40;;;;;;;44.27;34.47;;;10.60;71.00;;;;;;5021684;28;20451;-90
2021/04/10 11:29:21;;;;;;;78.40;46.95;;;11.80;71.10;;;;;;5026516;28;20471;-90
2021/04/10 11:32:13;;;;;;;52.33;37.67;;;10.70;71.60;;;;;;5024108;28;20800;-92
2021/04/10 11:34:53;;;;;;;54.90;35.90;;;10.70;71.20;;;;;;5025261;28;20423;-89
2021/04/10 11:37:43;;;;;;;53.72;35.08;;;10.70;69.50;;;;;;5028036;28;20411;-88
2021/04/10 11:40:21;;;;;;;49.63;36.23;;;10.60;71.00;;;;;;5025026;28;20175;-87
2021/04/10 11:43:12;;;;;;;51.63;37.65;;;10.50;70.80;;;;;;5033614;28;20427;-87
2021/04/10 11:45:55;;;;;;;58.10;40.73;;;10.50;70.60;;;;;;5015865;28;20291;-90
2021/04/10 11:48:23;;;;;;;50.97;37.15;;;10.30;71.90;;;;;;5017872;28;20985;-88
2021/04/10 11:50:56;;;;;;;62.73;44.00;;;10.60;73.90;;;;;;5018014;28;20218;-85
2021/04/10 11:53:35;;;;;;;58.67;39.42;;;10.60;74.80;;;;;;5016287;28;20423;-89
2021/04/10 11:56:21;;;;;;;72.68;48.30;;;10.50;72.10;;;;;;5017336;28;20161;-89
2021/04/10 11:58:47;;;;;;;61.13;38.10;;;9.80;72.80;;;;;;5015313;28;20223;-88
2021/04/10 12:01:17;;;;;;;55.87;37.37;;;10.50;71.70;;;;;;5026273;28;20427;-90
2021/04/10 12:04:00;;;;;;;52.90;37.40;;;10.90;73.60;;;;;;5024732;28;20195;-90
2021/04/10 12:06:34;;;;;;;57.77;40.50;;;9.60;71.80;;;;;;5022178;28;20899;-89
2021/04/10 12:09:06;;;;;;;63.67;41.67;;;10.40;73.40;;;;;;5021867;28;20494;-89
2021/04/10 12:11:40;;;;;;;53.13;39.72;;;10.40;73.10;;;;;;5028531;28;20403;-90
2021/04/10 12:14:17;;;;;;;58.57;39.53;;;13.30;79.90;;;;;;5032662;28;20251;-88
2021/04/10 12:16:49;;;;;;;54.27;38.70;;;13.70;80.70;;;;;;5032207;28;20426;-87
2021/04/10 12:19:15;;;;;;;63.73;40.90;;;13.40;81.60;;;;;;5032303;28;20436;-88
2021/04/10 12:21:41;;;;;;;55.67;41.00;;;10.80;74.90;;;;;;5027042;28;20470;-85
2021/04/10 12:24:07;;;;;;;63.53;43.63;;;9.60;76.20;;;;;;5014452;28;20247;-84
2021/04/10 12:26:33;;;;;;;64.43;43.47;;;10.50;75.80;;;;;;5014704;28;20176;-85
2021/04/10 12:29:08;;;;;;;63.00;43.00;;;11.90;76.80;;;;;;5017375;28;20498;-89
2021/04/10 12:31:34;;;;;;;61.03;42.97;;;10.50;74.50;;;;;;5032325;28;20414;-89
2021/04/10 12:34:07;;;;;;;72.63;46.70;;;10.50;75.70;;;;;;5015564;28;20431;-89
2021/04/10 12:36:34;;;;;;;62.83;43.70;;;;;;;;;;5249423;22;20572;-88
2021/04/10 12:39:00;;;;;;;69.67;45.77;;;10.30;73.20;;;;;;5022947;28;20553;-88
2021/04/10 12:41:27;;;;;;;76.03;45.30;;;11.70;78.40;;;;;;5019758;28;20427;-88
2021/04/10 12:43:53;;;;;;;68.20;43.58;;;11.70;76.50;;;;;;5018571;28;20643;-88
2021/04/10 12:46:19;;;;;;;66.73;44.80;;;;;;;;;;5016441;28;20200;-89
2021/04/10 12:48:46;;;;;;;62.53;41.22;;;9.80;77.50;;;;;;5021299;28;20467;-89
2021/04/10 12:51:13;;;;;;;66.93;43.93;;;8.80;76.80;;;;;;5023553;28;20180;-89
2021/04/10 12:56:11;;;;;;;68.15;45.95;;;9.80;92.80;;;;;;5013510;28;20247;-88
2021/04/10 13:01:13;;;;;;;60.07;43.13;;;;;;;;;;4244202;23;20253;-88
2021/04/10 13:03:48;;;;;;;68.47;45.97;;;9.70;77.70;;;;;;5125485;22;20483;-86
2021/04/10 13:11:27;;;;;;;70.05;49.00;;;9.80;92.20;;;;;;5437720;22;20288;-88
2021/04/10 13:13:53;;;;;;;57.27;41.53;;;9.80;91.40;;;;;;5217573;22;20208;-89
2021/04/10 13:16:19;;;;;;;60.23;43.20;;;11.40;86.70;;;;;;5014974;28;20471;-87
2021/04/10 13:18:45;;;;;;;99.60;59.40;;;;;;;;;;5014440;28;20184;-86
2021/04/10 13:21:11;;;;;;;94.88;55.65;;;9.90;78.30;;;;;;5014099;28;20168;-88
2021/04/10 13:23:37;;;;;;;66.30;44.63;;;;;;;;;;5014163;28;20217;-87
2021/04/10 13:28:36;;;;;;;61.03;43.60;;;10.00;90.40;;;;;;5248383;22;20220;-88
2021/04/10 13:31:01;;;;;;;62.97;44.67;;;10.20;90.80;;;;;;5252342;23;20856;-87
2021/04/10 13:36:03;;;;;;;55.60;41.30;;;10.30;77.30;;;;;;4966356;26;20216;-88
2021/04/10 13:38:29;;;;;;;57.38;44.83;;;10.30;80.30;;;;;;5012293;28;20181;-88
2021/04/10 13:40:56;;;;;;;61.10;44.10;;;12.20;86.20;;;;;;4994995;28;20169;-89
2021/04/10 13:43:27;;;;;;;65.63;44.77;;;11.50;83.20;;;;;;5010710;28;20427;-89
2021/04/10 13:45:53;;;;;;;62.53;44.40;;;9.90;78.50;;;;;;5009338;28;20423;-88
2021/04/10 13:48:26;;;;;;;65.57;43.28;;;11.50;79.90;;;;;;5013227;28;20467;-88
2021/04/10 13:50:52;;;;;;;61.00;44.53;;;10.60;76.80;;;;;;5013248;28;20277;-87
2021/04/10 13:53:18;;;;;;;64.40;45.35;;;10.60;80.50;;;;;;5014043;28;20441;-85
2021/04/10 13:55:47;;;;;;;53.47;40.90;;;13.50;83.00;;;;;;5011521;28;20253;-89
2021/04/10 13:58:16;;;;;;;61.67;42.37;;;12.10;82.00;;;;;;5005756;28;20881;-87
2021/04/10 14:00:42;;;;;;;59.55;43.25;;;12.30;81.20;;;;;;4991797;28;20417;-86
2021/04/10 14:03:09;;;;;;;63.10;42.90;;;11.30;85.60;;;;;;4993014;28;20193;-89
2021/04/10 14:05:42;;;;;;;63.47;44.90;;;11.30;81.70;;;;;;4989566;28;20421;-88
2021/04/10 14:08:09;;;;;;;54.85;42.30;;;13.20;84.20;;;;;;4992879;28;20424;-86
2021/04/10 14:10:37;;;;;;;59.40;42.60;;;10.60;80.40;;;;;;4994591;28;20186;-90
2021/04/10 14:13:05;;;;;;;62.57;44.00;;;11.40;81.70;;;;;;4991409;28;20417;-88
2021/04/10 14:15:36;;;;;;;64.05;43.88;;;12.00;85.20;;;;;;4989685;28;20484;-88
2021/04/10 14:18:02;;;;;;;58.23;43.47;;;10.40;78.00;;;;;;4984149;28;20189;-90
2021/04/10 14:20:32;;;;;;;66.20;44.70;;;12.30;87.30;;;;;;4986376;28;20433;-90
2021/04/10 14:22:59;;;;;;;51.95;39.03;;;10.20;80.50;;;;;;4988901;28;20466;-89
2021/04/10 14:25:33;;;;;;;63.20;45.20;;;10.30;79.90;;;;;;4988016;28;20206;-89
2021/04/10 14:27:59;;;;;;;51.88;39.42;;;10.60;83.10;;;;;;4971934;28;20858;-88
2021/04/10 14:30:28;;;;;;;50.77;38.70;;;10.60;83.30;;;;;;4984888;28;20312;-85
2021/04/10 14:33:06;;;;;;;56.83;40.03;;;10.20;78.90;;;;;;4988343;28;20417;-89
2021/04/10 14:35:43;;;;;;;52.20;38.00;;;10.50;79.40;;;;;;4988720;28;20569;-89
2021/04/10 14:38:09;;;;;;;47.97;36.53;;;10.00;81.20;;;;;;4988803;28;20456;-88
2021/04/10 14:40:37;;;;;;;40.40;32.80;;;12.10;85.10;;;;;;4991705;28;20425;-89
2021/04/10 14:43:10;;;;;;;47.13;35.50;;;10.50;76.90;;;;;;4984763;28;21071;-88
2021/04/10 14:45:38;;;;;;;40.60;34.47;;;12.30;79.80;;;;;;4988746;28;20421;-90
2021/04/10 14:48:08;;;;;;;49.78;36.13;;;12.30;81.20;;;;;;4984901;28;20174;-88
2021/04/10 14:50:34;;;;;;;43.83;34.97;;;10.90;81.10;;;;;;4973973;28;20182;-88
2021/04/10 14:53:30;;;;;;;45.92;36.42;;;12.60;85.90;;;;;;4990911;28;20441;-84
2021/04/10 14:56:01;;;;;;;45.40;36.47;;;10.90;82.90;;;;;;4984643;28;20182;-89
2021/04/10 14:58:28;;;;;;;49.28;37.10;;;12.00;82.80;;;;;;4972486;28;20425;-88
2021/04/10 15:00:56;;;;;;;53.30;39.80;;;10.10;82.00;;;;;;4987568;28;20530;-89
2021/04/10 15:03:23;;;;;;;42.53;34.90;;;11.40;82.90;;;;;;4989618;28;20457;-89
2021/04/10 15:05:56;;;;;;;47.77;38.07;;;9.30;79.70;;;;;;4990720;28;20509;-89
2021/04/10 15:08:23;;;;;;;49.90;37.65;;;12.80;84.50;;;;;;4989933;28;20457;-88
2021/04/10 15:10:55;;;;;;;55.50;40.60;;;9.20;80.10;;;;;;4993480;28;20186;-89
2021/04/10 15:13:24;;;;;;;53.40;36.77;;;10.80;81.80;;;;;;4992352;28;20170;-89
2021/04/10 15:16:03;;;;;;;43.33;35.93;;;9.50;83.40;;;;;;4990932;28;20440;-90
2021/04/10 15:18:29;;;;;;;48.47;39.07;;;10.60;82.20;;;;;;4990408;28;20425;-89
2021/04/10 15:20:57;;;;;;;49.37;38.73;;;10.50;79.20;;;;;;4989334;28;20414;-89
2021/04/10 15:23:26;;;;;;;48.93;37.90;;;13.10;89.50;;;;;;4991562;28;20186;-90
2021/04/10 15:26:08;;;;;;;52.70;36.67;;;12.60;86.00;;;;;;4993380;28;20432;-89
2021/04/10 15:28:34;;;;;;;50.70;38.40;;;9.90;87.00;;;;;;4980931;28;20209;-88
2021/04/10 15:31:04;;;;;;;53.67;40.30;;;9.80;82.20;;;;;;4977984;28;20931;-88
2021/04/10 15:33:37;;;;;;;51.78;38.22;;;10.40;81.70;;;;;;4979601;28;20488;-87
2021/04/10 15:36:04;;;;;;;55.25;40.08;;;10.30;81.50;;;;;;4978563;28;20292;-87
2021/04/10 15:38:30;;;;;;;53.63;40.22;;;10.30;81.80;;;;;;4989724;28;20182;-86
2021/04/10 15:40:56;;;;;;;53.47;42.77;;;10.30;84.00;;;;;;4996160;28;20163;-88
2021/04/10 15:43:22;;;;;;;85.93;52.85;;;10.10;85.00;;;;;;4995690;28;20414;-88
2021/04/10 15:45:50;;;;;;;54.20;38.30;;;10.60;88.10;;;;;;4995387;28;20198;-90
2021/04/10 15:48:20;;;;;;;52.05;38.85;;;12.30;86.00;;;;;;4994020;28;20525;-90
2021/04/10 15:50:47;;;;;;;45.23;33.70;;;13.10;88.40;;;;;;4993190;28;20182;-90
2021/04/10 15:53:16;;;;;;;43.88;36.10;;;10.50;88.70;;;;;;4993556;28;20421;-87
2021/04/10 15:55:45;;;;;;;39.40;31.90;;;11.40;87.40;;;;;;4997282;28;20177;-90
2021/04/10 15:58:13;;;;;;;45.43;35.37;;;9.50;88.90;;;;;;4996006;28;20626;-89
2021/04/10 16:00:38;;;;;;;40.63;33.77;;;9.80;88.80;;;;;;5008942;28;20417;-88
2021/04/10 16:03:11;;;;;;;39.67;33.30;;;13.90;89.90;;;;;;4994852;28;20444;-91
2021/04/10 16:05:46;;;;;;;41.57;32.27;;;9.40;85.70;;;;;;4993310;28;20190;-89
2021/04/10 16:08:12;;;;;;;41.60;33.03;;;13.20;86.70;;;;;;4977830;28;20444;-88
2021/04/10 16:11:02;;;;;;;;;;;;;;;;;;;;;
2021/04/10 16:14:15;;;;;;;40.17;31.57;;;10.00;84.10;;;;;;4996833;28;20205;-90
2021/04/10 16:22:27;;;;;;;37.43;30.37;;;10.20;93.00;;;;;;5713069;22;20900;-89
2021/04/10 16:30:27;;;;;;;34.90;27.97;;;10.00;92.50;;;;;;5106113;22;20475;-93
2021/04/10 16:33:04;;;;;;;36.07;29.17;;;11.30;83.70;;;;;;5032393;28;20527;-89
2021/04/10 16:51:17;;;;;;;28.00;25.00;;;10.10;82.20;;;;;;2889319;26;20221;-90
2021/04/10 16:53:47;;;;;;;26.42;22.60;;;11.40;84.20;;;;;;5001586;28;20185;-90
2021/04/10 16:56:13;;;;;;;25.77;22.10;;;9.60;87.10;;;;;;4993600;28;20180;-88
2021/04/10 16:58:48;;;;;;;28.07;22.67;;;8.80;84.40;;;;;;5021448;28;20810;-90
2021/04/10 17:01:25;;;;;;;24.70;19.33;;;10.50;84.90;;;;;;5015582;28;20175;-89
2021/04/10 17:09:07;;;;;;;24.43;21.87;;;10.20;81.90;;;;;;5188947;22;20231;-88
2021/04/10 17:11:43;;;;;;;22.88;20.42;;;10.40;84.10;;;;;;5015493;28;20426;-91
2021/04/10 17:14:33;;;;;;;18.60;16.90;;;9.90;83.20;;;;;;5031937;28;20191;-88
2021/04/10 17:16:58;;;;;;;22.45;20.25;;;11.20;82.70;;;;;;5016192;28;20937;-88
2021/04/10 17:19:24;;;;;;;15.07;13.77;;;11.30;86.90;;;;;;5012940;28;20180;-89
2021/04/10 17:21:50;;;;;;;14.03;12.90;;;10.50;82.40;;;;;;5011221;28;20172;-88
2021/04/10 17:24:18;;;;;;;14.65;13.35;;;10.30;83.20;;;;;;5027254;28;20176;-89
2021/04/10 17:27:17;;;;;;;;;;;;;;;;;;;;;
2021/04/10 17:29:55;;;;;;;13.20;11.90;;;11.80;82.90;;;;;;4989869;28;20498;-88
2021/04/10 17:36:21;;;;;;;12.60;11.50;;;11.00;81.50;;;;;;5015122;28;21152;-89
2021/04/10 17:44:01;;;;;;;14.40;13.13;;;10.00;92.10;;;;;;4458564;22;20482;-88
2021/04/10 17:51:38;;;;;;;18.87;17.03;;;;;;;;;;4544447;22;20483;-87
2021/04/10 17:54:33;;;;;;;12.90;11.67;;;10.20;81.30;;;;;;5035066;28;20442;-89
2021/04/10 17:59:34;;;;;;;13.73;11.93;;;10.30;81.50;;;;;;5072821;23;20479;-90
2021/04/10 18:02:01;;;;;;;11.83;10.83;;;12.20;89.60;;;;;;5036855;28;20564;-90
2021/04/10 18:04:32;;;;;;;7.65;7.25;;;10.20;79.90;;;;;;5497483;22;20220;-89
2021/04/10 18:12:13;;;;;;;14.20;9.73;;;10.40;79.70;;;;;;5890496;22;20427;-86
2021/04/10 18:17:15;;;;;;;6.67;6.37;;;10.20;88.00;;;;;;6030013;22;20545;-88
2021/04/10 18:22:17;;;;;;;8.73;8.00;;;10.30;80.10;;;;;;5021391;22;20228;-90
2021/04/10 18:24:45;;;;;;;9.10;8.50;;;10.20;80.40;;;;;;5011305;28;20198;-87
2021/04/10 18:29:48;;;;;;;8.13;7.63;;;10.20;81.20;;;;;;5313807;22;20468;-89
2021/04/10 18:32:14;;;;;;;7.50;7.10;;;13.10;89.10;;;;;;5311280;22;20487;-89
2021/04/10 19:12:17;;;;;;;4.23;4.13;;;10.60;91.60;;;;;;5977968;22;21621;-89
2021/04/10 19:14:43;;;;;;;4.80;4.60;;;;;;;;;;5131414;22;20468;-87
2021/04/10 19:22:20;;;;;;;5.00;4.78;;;;;;;;;;6087463;22;20171;-88
2021/04/10 19:24:49;;;;;;;4.77;4.67;;;10.60;91.90;;;;;;5039393;28;20201;-90
2021/04/10 21:11:23;;;;;;;5.57;5.38;;;10.70;72.50;;;;;;6127084;22;20361;31
2021/04/10 23:13:20;;;;;;;9.82;9.13;;;10.30;79.20;;;;;;4186242;23;20885;-89
2021/04/10 23:21:44;;;;;;;9.30;8.70;;;10.30;80.10;;;;;;6125850;22;20419;31
2021/04/10 23:27:29;;;;;;;11.67;10.57;;;10.10;92.60;;;;;;5236134;22;20500;-90
2021/04/10 23:29:54;;;;;;;9.80;9.13;;;12.40;84.10;;;;;;4580931;22;20484;-90
2021/04/10 23:50:31;;;;;;;11.25;10.50;;;10.20;91.50;;;;;;5772254;22;20243;-91
